createdAt,value
2023-05-01T00:00:05.595Z,2.10
2023-05-01T00:02:32.542Z,2.10
2023-05-01T00:04:59.386Z,1.70
2023-05-01T00:07:29.365Z,2.08
2023-05-01T00:09:56.238Z,1.60
2023-05-01T00:12:23.535Z,1.63
2023-05-01T00:14:50.636Z,1.90
2023-05-01T00:17:17.509Z,1.83
2023-05-01T00:19:44.214Z,1.80
2023-05-01T00:22:10.860Z,2.33
2023-05-01T00:24:37.535Z,2.20
2023-05-01T00:27:04.408Z,1.80
2023-05-01T00:29:31.113Z,2.20
2023-05-01T00:31:57.873Z,1.60
2023-05-01T00:34:25.208Z,1.92
2023-05-01T00:36:52.436Z,1.60
2023-05-01T00:39:19.577Z,1.90
2023-05-01T00:41:46.193Z,1.98
2023-05-01T00:44:13.020Z,2.00
2023-05-01T00:46:39.754Z,2.10
2023-05-01T00:49:06.646Z,1.88
2023-05-01T00:51:33.785Z,1.67
2023-05-01T00:54:01.586Z,1.60
2023-05-01T00:56:29.042Z,1.70
2023-05-01T00:58:56.873Z,1.90
2023-05-01T01:01:24.280Z,1.83
2023-05-01T01:03:54.772Z,1.90
2023-05-01T01:06:33.754Z,2.33
2023-05-01T01:09:09.044Z,1.85
2023-05-01T01:11:52.099Z,2.00
2023-05-01T01:14:27.390Z,2.17
2023-05-01T01:16:59.442Z,1.93
2023-05-01T01:19:41.421Z,1.83
2023-05-01T01:22:13.580Z,2.22
2023-05-01T01:24:59.157Z,1.95
2023-05-01T01:27:35.129Z,2.25
2023-05-01T01:30:04.813Z,1.67
2023-05-01T01:33:09.345Z,1.80
2023-05-01T01:35:39.032Z,2.30
2023-05-01T01:38:20.760Z,2.15
2023-05-01T01:40:58.795Z,2.75
2023-05-01T01:43:27.098Z,2.60
2023-05-01T01:46:03.733Z,2.58
2023-05-01T01:48:34.782Z,2.33
2023-05-01T01:51:06.575Z,1.70
2023-05-01T01:53:36.583Z,2.40
2023-05-01T01:56:08.596Z,1.80
2023-05-01T01:58:36.916Z,2.50
2023-05-01T02:01:06.367Z,2.00
2023-05-01T02:03:33.973Z,2.22
2023-05-01T02:06:01.883Z,1.83
2023-05-01T02:08:31.749Z,1.67
2023-05-01T02:11:01.965Z,1.77
2023-05-01T02:13:31.251Z,2.17
2023-05-01T02:16:03.269Z,1.67
2023-05-01T02:18:31.753Z,2.20
2023-05-01T02:21:01.115Z,1.80
2023-05-01T02:23:29.804Z,2.42
2023-05-01T02:25:58.712Z,2.10
2023-05-01T02:28:28.385Z,1.60
2023-05-01T02:30:55.110Z,2.20
2023-05-01T02:33:21.730Z,2.13
2023-05-01T02:35:48.476Z,1.60
2023-05-01T02:38:18.329Z,2.20
2023-05-01T02:40:50.591Z,2.00
2023-05-01T02:43:20.969Z,1.80
2023-05-01T02:45:49.340Z,1.80
2023-05-01T02:48:21.881Z,1.83
2023-05-01T02:50:50.085Z,1.80
2023-05-01T02:53:18.810Z,1.63
2023-05-01T02:55:50.615Z,2.40
2023-05-01T02:58:19.052Z,1.50
2023-05-01T03:00:48.592Z,1.60
2023-05-01T03:03:16.573Z,2.13
2023-05-01T03:05:43.333Z,2.00
2023-05-01T03:08:10.590Z,1.50
2023-05-01T03:10:40.798Z,1.57
2023-05-01T03:13:08.429Z,1.65
2023-05-01T03:15:35.075Z,1.92
2023-05-01T03:18:01.889Z,2.15
2023-05-01T03:20:29.798Z,2.08
2023-05-01T03:22:57.728Z,1.53
2023-05-01T03:25:25.946Z,1.70
2023-05-01T03:27:55.105Z,1.60
2023-05-01T03:30:22.702Z,2.00
2023-05-01T03:32:51.731Z,1.88
2023-05-01T03:35:23.899Z,1.53
2023-05-01T03:37:50.906Z,1.90
2023-05-01T03:40:37.488Z,2.40
2023-05-01T03:43:23.898Z,1.83
2023-05-01T03:45:52.563Z,2.20
2023-05-01T03:48:20.346Z,1.50
2023-05-01T03:50:47.106Z,1.80
2023-05-01T03:53:14.920Z,1.70
2023-05-01T03:55:41.903Z,1.73
2023-05-01T03:58:08.989Z,1.90
2023-05-01T04:00:35.718Z,1.77
2023-05-01T04:03:03.296Z,1.60
2023-05-01T04:05:32.103Z,1.73
2023-05-01T04:08:02.151Z,1.50
2023-05-01T04:10:28.924Z,1.45
2023-05-01T04:13:00.358Z,1.83
2023-05-01T04:15:27.712Z,2.03
2023-05-01T04:17:56.743Z,1.80
2023-05-01T04:20:23.898Z,1.50
2023-05-01T04:22:50.740Z,1.60
2023-05-01T04:25:17.812Z,1.70
2023-05-01T04:27:46.072Z,1.50
2023-05-01T04:30:14.632Z,2.30
2023-05-01T04:32:41.515Z,1.77
2023-05-01T04:35:09.615Z,1.83
2023-05-01T04:37:37.380Z,1.77
2023-05-01T04:40:04.565Z,1.80
2023-05-01T04:42:34.212Z,1.95
2023-05-01T04:45:04.030Z,1.90
2023-05-01T04:47:34.296Z,2.17
2023-05-01T04:50:01.265Z,1.63
2023-05-01T04:52:28.100Z,1.42
2023-05-01T04:54:59.132Z,1.63
2023-05-01T04:57:28.510Z,1.80
2023-05-01T04:59:55.600Z,1.80
2023-05-01T05:02:23.308Z,1.87
2023-05-01T05:04:50.496Z,1.60
2023-05-01T05:07:17.266Z,2.15
2023-05-01T05:10:07.882Z,1.83
2023-05-01T05:12:38.390Z,2.17
2023-05-01T05:15:06.114Z,2.20
2023-05-01T05:17:32.911Z,2.00
2023-05-01T05:19:59.792Z,2.00
2023-05-01T05:22:26.556Z,2.00
2023-05-01T05:25:13.192Z,1.92
2023-05-01T05:27:39.822Z,1.60
2023-05-01T05:30:07.311Z,1.77
2023-05-01T05:32:35.246Z,2.35
2023-05-01T05:35:02.592Z,1.95
2023-05-01T05:37:29.554Z,2.10
2023-05-01T05:39:57.064Z,1.83
2023-05-01T05:42:24.347Z,1.80
2023-05-01T05:44:51.222Z,1.88
2023-05-01T05:47:18.013Z,2.80
2023-05-01T05:49:44.682Z,2.05
2023-05-01T05:52:11.490Z,2.30
2023-05-01T05:54:38.970Z,2.65
2023-05-01T05:57:05.609Z,2.15
2023-05-01T05:59:33.172Z,2.40
2023-05-01T06:02:00.337Z,2.50
2023-05-01T06:04:27.071Z,2.53
2023-05-01T06:06:54.790Z,2.22
2023-05-01T06:09:21.835Z,2.75
2023-05-01T06:11:48.967Z,2.40
2023-05-01T06:14:17.023Z,2.20
2023-05-01T06:16:44.274Z,2.30
2023-05-01T06:19:12.213Z,2.55
2023-05-01T06:21:39.868Z,2.47
2023-05-01T06:24:06.836Z,2.17
2023-05-01T06:26:41.874Z,2.30
2023-05-01T06:29:08.617Z,2.67
2023-05-01T06:31:35.452Z,2.22
2023-05-01T06:34:02.325Z,2.55
2023-05-01T06:36:36.142Z,2.33
2023-05-01T06:39:02.857Z,3.13
2023-05-01T06:41:32.558Z,2.00
2023-05-01T06:43:59.492Z,2.17
2023-05-01T06:46:26.274Z,2.00
2023-05-01T06:48:53.047Z,2.03
2023-05-01T06:51:19.725Z,2.55
2023-05-01T06:53:46.385Z,1.90
2023-05-01T06:56:13.076Z,2.13
2023-05-01T06:58:39.940Z,2.03
2023-05-01T07:01:07.144Z,2.42
2023-05-01T07:03:33.965Z,2.20
2023-05-01T07:06:00.809Z,1.77
2023-05-01T07:08:28.310Z,1.88
2023-05-01T07:10:55.051Z,2.10
2023-05-01T07:13:21.765Z,2.20
2023-05-01T07:15:49.129Z,2.40
2023-05-01T07:18:17.129Z,1.90
2023-05-01T07:20:43.860Z,1.90
2023-05-01T07:23:10.624Z,2.22
2023-05-01T07:25:37.778Z,2.20
2023-05-01T07:28:08.268Z,2.15
2023-05-01T07:30:36.400Z,1.90
2023-05-01T07:33:03.461Z,2.13
2023-05-01T07:35:30.395Z,2.08
2023-05-01T07:37:57.089Z,2.00
2023-05-01T07:40:23.760Z,2.42
2023-05-01T07:42:53.133Z,1.77
2023-05-01T07:45:21.060Z,2.00
2023-05-01T07:47:48.063Z,2.30
2023-05-01T07:50:14.824Z,2.00
2023-05-01T07:52:41.437Z,2.38
2023-05-01T07:55:08.892Z,2.10
2023-05-01T07:57:36.279Z,2.03
2023-05-01T08:00:03.366Z,1.90
2023-05-01T08:02:43.073Z,2.30
2023-05-01T08:05:10.343Z,2.17
2023-05-01T08:07:37.261Z,1.73
2023-05-01T08:10:04.593Z,2.40
2023-05-01T08:12:31.804Z,2.20
2023-05-01T08:14:58.800Z,2.03
2023-05-01T08:17:25.808Z,2.72
2023-05-01T08:19:56.831Z,2.10
2023-05-01T08:22:24.133Z,2.33
2023-05-01T08:24:51.474Z,1.90
2023-05-01T08:27:20.369Z,2.80
2023-05-01T08:29:47.996Z,3.05
2023-05-01T08:32:15.786Z,2.17
2023-05-01T08:34:42.416Z,2.25
2023-05-01T08:37:09.271Z,2.50
2023-05-01T08:39:36.282Z,2.40
2023-05-01T08:42:06.784Z,2.30
2023-05-01T08:44:38.048Z,3.03
2023-05-01T08:47:27.790Z,3.33
2023-05-01T08:49:55.796Z,2.72
2023-05-01T08:52:23.843Z,2.60
2023-05-01T08:54:52.511Z,2.78
2023-05-01T08:57:20.727Z,2.30
2023-05-01T08:59:48.538Z,2.20
2023-05-01T09:02:16.078Z,2.20
2023-05-01T09:04:43.616Z,2.00
2023-05-01T09:07:10.512Z,2.00
2023-05-01T09:09:37.478Z,2.30
2023-05-01T09:12:24.640Z,2.10
2023-05-01T09:14:54.225Z,2.10
2023-05-01T09:17:22.505Z,1.90
2023-05-01T09:19:51.017Z,2.35
2023-05-01T09:22:19.123Z,1.80
2023-05-01T09:24:46.761Z,2.22
2023-05-01T09:27:14.754Z,2.35
2023-05-01T09:29:47.507Z,2.08
2023-05-01T09:32:19.411Z,1.95
2023-05-01T09:34:47.651Z,2.17
2023-05-01T09:37:29.362Z,2.07
2023-05-01T09:40:05.442Z,2.13
2023-05-01T09:42:35.012Z,2.22
2023-05-01T09:45:04.826Z,2.20
2023-05-01T09:47:34.153Z,1.98
2023-05-01T09:50:04.665Z,1.70
2023-05-01T09:52:33.971Z,1.95
2023-05-01T09:55:18.168Z,2.00
2023-05-01T09:57:46.752Z,1.70
2023-05-01T10:00:15.641Z,1.80
2023-05-01T10:02:46.172Z,1.57
2023-05-01T10:05:16.470Z,1.70
2023-05-01T10:08:03.848Z,1.70
2023-05-01T10:10:31.072Z,1.20
2023-05-01T10:13:15.585Z,1.38
2023-05-01T10:15:42.564Z,1.80
2023-05-01T10:18:12.090Z,1.63
2023-05-01T10:20:40.619Z,1.63
2023-05-01T10:23:07.969Z,1.30
2023-05-01T10:25:36.892Z,1.65
2023-05-01T10:28:04.751Z,1.60
2023-05-01T10:30:32.474Z,1.30
2023-05-01T10:33:00.072Z,1.42
2023-05-01T10:35:34.181Z,1.50
2023-05-01T10:38:03.034Z,1.70
2023-05-01T10:40:39.202Z,1.30
2023-05-01T10:43:30.876Z,1.40
2023-05-01T10:46:09.999Z,1.30
2023-05-01T10:48:39.899Z,1.45
2023-05-01T10:51:28.336Z,1.60
2023-05-01T10:54:13.956Z,1.30
2023-05-01T10:56:42.913Z,1.20
2023-05-01T10:59:10.578Z,1.55
2023-05-01T11:01:39.767Z,1.40
2023-05-01T11:04:27.937Z,1.70
2023-05-01T11:06:57.671Z,1.40
2023-05-01T11:09:54.477Z,1.60
2023-05-01T11:12:46.863Z,1.52
2023-05-01T11:15:29.558Z,1.70
2023-05-01T11:17:59.790Z,1.83
2023-05-01T11:20:26.500Z,1.63
2023-05-01T11:22:54.706Z,1.67
2023-05-01T11:25:27.237Z,1.30
2023-05-01T11:27:57.081Z,1.80
2023-05-01T11:30:24.420Z,1.60
2023-05-01T11:32:52.377Z,2.00
2023-05-01T11:35:21.079Z,1.50
2023-05-01T11:37:48.532Z,1.95
2023-05-01T11:40:41.322Z,2.00
2023-05-01T11:43:09.376Z,1.60
2023-05-01T11:45:37.836Z,1.50
2023-05-01T11:48:14.131Z,1.40
2023-05-01T11:50:40.868Z,1.60
2023-05-01T11:53:12.976Z,1.48
2023-05-01T11:55:40.459Z,1.92
2023-05-01T11:58:07.507Z,1.40
2023-05-01T12:00:37.487Z,1.63
2023-05-01T12:03:07.055Z,1.80
2023-05-01T12:05:37.442Z,1.60
2023-05-01T12:08:15.980Z,1.60
2023-05-01T12:10:44.341Z,1.60
2023-05-01T12:13:13.644Z,1.58
2023-05-01T12:15:50.113Z,1.23
2023-05-01T12:18:18.692Z,1.40
2023-05-01T12:20:48.738Z,1.20
2023-05-01T12:23:19.073Z,1.20
2023-05-01T12:25:46.746Z,1.50
2023-05-01T12:28:14.680Z,1.40
2023-05-01T12:30:42.723Z,1.20
2023-05-01T12:33:12.107Z,1.13
2023-05-01T12:35:40.402Z,1.30
2023-05-01T12:38:12.855Z,1.42
2023-05-01T12:40:41.147Z,1.50
2023-05-01T12:43:07.988Z,1.45
2023-05-01T12:45:43.599Z,1.90
2023-05-01T12:48:14.101Z,1.47
2023-05-01T12:50:41.636Z,1.50
2023-05-01T12:53:09.951Z,1.40
2023-05-01T12:55:51.949Z,1.33
2023-05-01T12:58:19.020Z,1.50
2023-05-01T13:00:48.736Z,1.27
2023-05-01T13:03:18.264Z,1.40
2023-05-01T13:06:02.615Z,1.13
2023-05-01T13:08:34.973Z,1.27
2023-05-01T13:11:13.672Z,1.38
2023-05-01T13:13:41.402Z,1.57
2023-05-01T13:16:12.289Z,1.30
2023-05-01T13:18:58.073Z,1.50
2023-05-01T13:21:25.368Z,1.40
2023-05-01T13:23:59.825Z,1.30
2023-05-01T13:26:33.542Z,1.50
2023-05-01T13:29:02.041Z,1.48
2023-05-01T13:31:29.799Z,1.55
2023-05-01T13:33:59.690Z,1.38
2023-05-01T13:36:32.880Z,1.80
2023-05-01T13:38:59.830Z,1.60
2023-05-01T13:41:27.525Z,1.40
2023-05-01T13:43:56.626Z,1.77
2023-05-01T13:46:25.681Z,1.40
2023-05-01T13:48:52.889Z,1.40
2023-05-01T13:51:22.928Z,1.50
2023-05-01T13:53:50.274Z,1.33
2023-05-01T13:56:16.947Z,1.40
2023-05-01T13:58:43.743Z,1.50
2023-05-01T14:01:21.499Z,1.23
2023-05-01T14:03:49.459Z,1.60
2023-05-01T14:06:18.790Z,1.55
2023-05-01T14:08:47.028Z,1.40
2023-05-01T14:11:14.786Z,1.30
2023-05-01T14:13:44.159Z,1.65
2023-05-01T14:16:19.975Z,1.60
2023-05-01T14:18:48.328Z,1.40
2023-05-01T14:21:20.959Z,1.48
2023-05-01T14:23:47.778Z,1.50
2023-05-01T14:26:18.894Z,1.75
2023-05-01T14:28:48.202Z,1.40
2023-05-01T14:31:29.478Z,1.20
2023-05-01T14:34:06.297Z,1.30
2023-05-01T14:36:33.198Z,1.30
2023-05-01T14:39:01.909Z,1.60
2023-05-01T14:41:30.053Z,1.60
2023-05-01T14:43:57.107Z,1.40
2023-05-01T14:46:30.941Z,1.35
2023-05-01T14:48:59.968Z,1.25
2023-05-01T14:51:27.820Z,1.40
2023-05-01T14:53:54.829Z,1.30
2023-05-01T14:56:21.766Z,1.42
2023-05-01T14:58:51.734Z,1.50
2023-05-01T15:01:19.485Z,1.40
2023-05-01T15:03:46.523Z,1.30
2023-05-01T15:06:13.450Z,1.50
2023-05-01T15:08:40.315Z,1.70
2023-05-01T15:11:07.599Z,1.35
2023-05-01T15:13:34.770Z,1.40
2023-05-01T15:16:01.563Z,1.33
2023-05-01T15:18:28.285Z,1.40
2023-05-01T15:20:55.539Z,1.10
2023-05-01T15:23:22.306Z,1.55
2023-05-01T15:25:50.639Z,1.00
2023-05-01T15:28:17.419Z,1.10
2023-05-01T15:30:46.733Z,1.60
2023-05-01T15:33:17.142Z,1.30
2023-05-01T15:35:45.744Z,1.35
2023-05-01T15:38:12.642Z,1.25
2023-05-01T15:40:39.256Z,1.23
2023-05-01T15:43:06.521Z,1.10
2023-05-01T15:45:33.677Z,1.20
2023-05-01T15:48:01.355Z,1.48
2023-05-01T15:50:28.290Z,1.30
2023-05-01T15:52:55.345Z,1.10
2023-05-01T15:55:22.408Z,1.40
2023-05-01T15:57:49.392Z,1.27
2023-05-01T16:00:21.813Z,1.33
2023-05-01T16:02:48.598Z,1.70
2023-05-01T16:05:18.937Z,1.67
2023-05-01T16:07:46.241Z,1.60
2023-05-01T16:10:12.953Z,1.30
2023-05-01T16:12:40.106Z,1.45
2023-05-01T16:15:07.360Z,1.40
2023-05-01T16:17:45.049Z,1.23
2023-05-01T16:20:13.326Z,1.23
2023-05-01T16:22:41.638Z,1.38
2023-05-01T16:25:10.518Z,1.38
2023-05-01T16:27:42.472Z,1.45
2023-05-01T16:30:10.012Z,1.63
2023-05-01T16:32:37.931Z,1.47
2023-05-01T16:35:05.780Z,1.60
2023-05-01T16:37:34.182Z,1.80
2023-05-01T16:40:01.889Z,1.33
2023-05-01T16:42:28.996Z,1.33
2023-05-01T16:44:57.164Z,1.30
2023-05-01T16:47:24.022Z,1.27
2023-05-01T16:49:52.365Z,1.70
2023-05-01T16:52:19.262Z,1.30
2023-05-01T16:54:46.068Z,1.60
2023-05-01T16:57:13.097Z,1.40
2023-05-01T16:59:39.776Z,1.05
2023-05-01T17:02:07.003Z,1.30
2023-05-01T17:04:34.109Z,1.15
2023-05-01T17:07:01.004Z,1.33
2023-05-01T17:09:27.732Z,1.53
2023-05-01T17:11:56.683Z,1.15
2023-05-01T17:14:26.118Z,1.63
2023-05-01T17:16:53.264Z,1.20
2023-05-01T17:19:20.098Z,1.83
2023-05-01T17:21:47.796Z,1.10
2023-05-01T17:24:14.756Z,1.30
2023-05-01T17:26:42.619Z,1.40
2023-05-01T17:29:10.346Z,1.70
2023-05-01T17:31:37.119Z,3.53
2023-05-01T17:34:04.329Z,2.10
2023-05-01T17:36:32.388Z,1.30
2023-05-01T17:39:01.364Z,1.70
2023-05-01T17:41:28.110Z,1.67
2023-05-01T17:43:55.450Z,2.10
2023-05-01T17:46:22.204Z,2.67
2023-05-01T17:48:51.306Z,2.15
2023-05-01T17:51:18.571Z,2.80
2023-05-01T17:53:46.530Z,1.90
2023-05-01T17:56:13.495Z,1.83
2023-05-01T17:58:40.988Z,1.40
2023-05-01T18:01:07.850Z,2.65
2023-05-01T18:03:47.236Z,1.60
2023-05-01T18:06:14.078Z,1.70
2023-05-01T18:08:41.430Z,1.63
2023-05-01T18:11:08.309Z,1.30
2023-05-01T18:13:41.268Z,1.85
2023-05-01T18:16:08.618Z,1.75
2023-05-01T18:18:35.657Z,1.70
2023-05-01T18:21:02.365Z,1.55
2023-05-01T18:23:29.170Z,1.20
2023-05-01T18:25:56.251Z,1.60
2023-05-01T18:28:23.104Z,1.45
2023-05-01T18:30:50.573Z,1.70
2023-05-01T18:33:18.047Z,1.90
2023-05-01T18:35:44.785Z,1.77
2023-05-01T18:38:11.706Z,1.75
2023-05-01T18:40:38.475Z,1.48
2023-05-01T18:43:06.724Z,1.40
2023-05-01T18:45:34.867Z,1.48
2023-05-01T18:48:03.195Z,1.40
2023-05-01T18:50:30.287Z,1.27
2023-05-01T18:52:57.080Z,1.70
2023-05-01T18:55:25.188Z,1.70
2023-05-01T18:57:52.207Z,1.70
2023-05-01T19:00:32.283Z,1.60
2023-05-01T19:02:59.318Z,1.30
2023-05-01T19:05:27.623Z,1.70
2023-05-01T19:07:58.996Z,1.70
2023-05-01T19:10:28.638Z,1.90
2023-05-01T19:12:55.392Z,2.00
2023-05-01T19:15:28.241Z,1.77
2023-05-01T19:17:58.318Z,1.95
2023-05-01T19:20:25.334Z,2.13
2023-05-01T19:22:52.174Z,2.05
2023-05-01T19:25:19.252Z,2.07
2023-05-01T19:27:46.734Z,2.05
2023-05-01T19:30:13.425Z,1.70
2023-05-01T19:32:40.453Z,1.77
2023-05-01T19:35:10.073Z,2.00
2023-05-01T19:37:37.159Z,2.23
2023-05-01T19:40:04.552Z,1.40
2023-05-01T19:42:31.585Z,1.90
2023-05-01T19:44:58.537Z,1.63
2023-05-01T19:47:26.327Z,1.80
2023-05-01T19:49:53.071Z,2.00
2023-05-01T19:52:19.720Z,1.60
2023-05-01T19:54:47.672Z,1.88
2023-05-01T19:57:14.424Z,1.85
2023-05-01T20:02:27.927Z,1.90
2023-05-01T20:04:54.947Z,1.80
2023-05-01T20:07:21.879Z,1.90
2023-05-01T20:09:48.850Z,2.00
2023-05-01T20:12:15.915Z,2.08
2023-05-01T20:14:42.675Z,1.70
2023-05-01T20:17:09.648Z,1.95
2023-05-01T20:19:39.614Z,1.80
2023-05-01T20:22:07.028Z,2.25
2023-05-01T20:24:34.607Z,2.03
2023-05-01T20:27:03.928Z,1.40
2023-05-01T20:29:30.623Z,1.80
2023-05-01T20:31:58.998Z,1.90
2023-05-01T20:34:25.941Z,1.50
2023-05-01T20:36:52.664Z,1.52
2023-05-01T20:39:19.454Z,2.13
2023-05-01T20:41:46.184Z,1.92
2023-05-01T20:44:16.819Z,2.00
2023-05-01T20:46:44.857Z,1.77
2023-05-01T20:49:15.053Z,1.58
2023-05-01T20:51:42.700Z,1.80
2023-05-01T20:54:09.416Z,1.70
2023-05-01T20:56:36.230Z,1.95
2023-05-01T20:59:03.895Z,1.80
2023-05-01T21:01:33.861Z,1.80
2023-05-01T21:04:01.011Z,1.87
2023-05-01T21:06:31.642Z,1.50
2023-05-01T21:09:01.507Z,2.00
2023-05-01T21:11:28.392Z,1.65
2023-05-01T21:13:57.757Z,2.10
2023-05-01T21:16:24.973Z,1.70
2023-05-01T21:18:51.592Z,1.58
2023-05-01T21:21:18.707Z,1.60
2023-05-01T21:23:51.284Z,1.50
2023-05-01T21:26:19.711Z,1.23
2023-05-01T21:28:46.596Z,1.90
2023-05-01T21:31:13.729Z,1.67
2023-05-01T21:33:43.271Z,1.52
2023-05-01T21:36:10.400Z,1.60
2023-05-01T21:38:37.212Z,1.88
2023-05-01T21:41:04.100Z,1.60
2023-05-01T21:43:34.787Z,1.75
2023-05-01T21:46:01.673Z,1.50
2023-05-01T21:48:32.939Z,1.85
2023-05-01T21:51:00.765Z,1.70
2023-05-01T21:53:28.879Z,1.60
2023-05-01T21:55:55.634Z,1.40
2023-05-01T21:58:22.258Z,1.35
2023-05-01T22:00:49.196Z,1.70
2023-05-01T22:03:18.092Z,1.60
2023-05-01T22:05:45.541Z,1.73
2023-05-01T22:08:12.368Z,1.60
2023-05-01T22:10:41.083Z,1.85
2023-05-01T22:13:07.843Z,1.75
2023-05-01T22:15:34.677Z,2.40
2023-05-01T22:18:01.567Z,1.73
2023-05-01T22:20:28.442Z,1.77
2023-05-01T22:22:55.373Z,1.63
2023-05-01T22:25:22.345Z,1.65
2023-05-01T22:27:49.013Z,1.58
2023-05-01T22:30:16.169Z,1.20
2023-05-01T22:32:42.897Z,1.50
2023-05-01T22:35:09.836Z,1.83
2023-05-01T22:37:36.554Z,1.60
2023-05-01T22:40:03.753Z,1.50
2023-05-01T22:42:30.738Z,1.70
2023-05-01T22:44:57.570Z,1.52
2023-05-01T22:47:24.447Z,1.40
2023-05-01T22:49:51.425Z,1.60
2023-05-01T22:52:18.263Z,1.90
2023-05-01T22:54:45.053Z,1.60
2023-05-01T22:57:12.113Z,1.60
2023-05-01T22:59:40.654Z,1.70
2023-05-01T23:02:08.685Z,1.75
2023-05-01T23:04:35.843Z,1.55
2023-05-01T23:07:02.493Z,1.10
2023-05-01T23:09:32.219Z,1.50
2023-05-01T23:11:59.109Z,1.25
2023-05-01T23:14:25.906Z,1.60
2023-05-01T23:16:52.656Z,2.10
2023-05-01T23:19:24.203Z,1.50
2023-05-01T23:22:01.977Z,1.20
2023-05-01T23:24:42.006Z,1.50
2023-05-01T23:27:08.985Z,1.30
2023-05-01T23:29:35.771Z,1.40
2023-05-01T23:32:02.909Z,1.73
2023-05-01T23:34:29.629Z,1.30
2023-05-01T23:36:56.372Z,1.52
2023-05-01T23:39:23.100Z,1.73
2023-05-01T23:41:50.564Z,1.70
2023-05-01T23:44:17.425Z,1.47
2023-05-01T23:46:44.232Z,1.40
2023-05-01T23:49:11.512Z,1.60
2023-05-01T23:51:38.326Z,1.33
2023-05-01T23:54:05.068Z,1.77
2023-05-01T23:56:31.893Z,1.20
2023-05-01T23:58:58.594Z,1.60
